sensor_id;sensor_type;location;lat;lon;timestamp;temperature;humidity
36244;DHT22;22284;49.956;19.816;2022-09-27T00:02:20;10.06;84.75
36244;DHT22;22284;49.956;19.816;2022-09-27T00:05:21;10.03;84.72
36244;DHT22;22284;49.956;19.816;2022-09-27T00:08:22;10.04;84.66
36244;DHT22;22284;49.956;19.816;2022-09-27T00:11:34;10.03;84.60
36244;DHT22;22284;49.956;19.816;2022-09-27T00:14:35;10.03;84.59
36244;DHT22;22284;49.956;19.816;2022-09-27T00:17:37;10.00;84.56
36244;DHT22;22284;49.956;19.816;2022-09-27T00:20:39;9.99;84.52
36244;DHT22;22284;49.956;19.816;2022-09-27T00:23:40;9.97;84.45
36244;DHT22;22284;49.956;19.816;2022-09-27T00:26:42;9.94;84.46
36244;DHT22;22284;49.956;19.816;2022-09-27T00:29:44;9.92;84.43
36244;DHT22;22284;49.956;19.816;2022-09-27T00:32:46;9.88;84.42
36244;DHT22;22284;49.956;19.816;2022-09-27T00:35:47;9.86;84.43
36244;DHT22;22284;49.956;19.816;2022-09-27T00:38:49;9.79;84.44
36244;DHT22;22284;49.956;19.816;2022-09-27T00:41:50;9.78;84.23
36244;DHT22;22284;49.956;19.816;2022-09-27T00:45:10;9.75;84.15
36244;DHT22;22284;49.956;19.816;2022-09-27T00:48:06;9.70;84.02
36244;DHT22;22284;49.956;19.816;2022-09-27T00:51:08;9.69;84.02
36244;DHT22;22284;49.956;19.816;2022-09-27T00:54:11;9.67;83.93
36244;DHT22;22284;49.956;19.816;2022-09-27T00:57:13;9.63;83.94
36244;DHT22;22284;49.956;19.816;2022-09-27T01:00:15;9.62;83.91
36244;DHT22;22284;49.956;19.816;2022-09-27T01:03:23;9.62;83.95
36244;DHT22;22284;49.956;19.816;2022-09-27T01:06:23;9.59;83.92
36244;DHT22;22284;49.956;19.816;2022-09-27T01:09:25;9.59;83.92
36244;DHT22;22284;49.956;19.816;2022-09-27T01:15:57;9.52;84.02
36244;DHT22;22284;49.956;19.816;2022-09-27T01:33:43;9.44;83.92
36244;DHT22;22284;49.956;19.816;2022-09-27T01:43:20;9.34;84.03
36244;DHT22;22284;49.956;19.816;2022-09-27T01:46:24;9.34;84.10
36244;DHT22;22284;49.956;19.816;2022-09-27T01:49:40;9.37;84.08
36244;DHT22;22284;49.956;19.816;2022-09-27T01:52:49;9.37;84.10
36244;DHT22;22284;49.956;19.816;2022-09-27T01:55:52;9.34;84.19
36244;DHT22;22284;49.956;19.816;2022-09-27T01:59:11;9.30;84.19
36244;DHT22;22284;49.956;19.816;2022-09-27T02:02:13;9.28;84.17
36244;DHT22;22284;49.956;19.816;2022-09-27T02:05:18;9.27;84.24
36244;DHT22;22284;49.956;19.816;2022-09-27T02:08:29;9.26;84.39
36244;DHT22;22284;49.956;19.816;2022-09-27T02:11:32;9.26;84.50
36244;DHT22;22284;49.956;19.816;2022-09-27T02:14:54;9.21;84.52
36244;DHT22;22284;49.956;19.816;2022-09-27T02:18:00;9.14;84.46
36244;DHT22;22284;49.956;19.816;2022-09-27T02:21:04;9.09;84.40
36244;DHT22;22284;49.956;19.816;2022-09-27T02:24:10;9.04;84.08
36244;DHT22;22284;49.956;19.816;2022-09-27T02:27:17;8.96;83.95
36244;DHT22;22284;49.956;19.816;2022-09-27T02:30:19;8.88;83.93
36244;DHT22;22284;49.956;19.816;2022-09-27T02:33:27;8.82;83.66
36244;DHT22;22284;49.956;19.816;2022-09-27T02:36:28;8.68;83.48
36244;DHT22;22284;49.956;19.816;2022-09-27T02:39:30;8.61;83.60
36244;DHT22;22284;49.956;19.816;2022-09-27T02:42:32;8.58;83.72
36244;DHT22;22284;49.956;19.816;2022-09-27T02:49:54;8.57;83.96
36244;DHT22;22284;49.956;19.816;2022-09-27T02:56:30;8.45;83.63
36244;DHT22;22284;49.956;19.816;2022-09-27T03:03:14;8.34;83.93
36244;DHT22;22284;49.956;19.816;2022-09-27T03:06:18;8.34;84.04
36244;DHT22;22284;49.956;19.816;2022-09-27T03:09:24;8.36;84.13
36244;DHT22;22284;49.956;19.816;2022-09-27T03:12:26;8.37;84.23
36244;DHT22;22284;49.956;19.816;2022-09-27T03:15:27;8.38;84.20
36244;DHT22;22284;49.956;19.816;2022-09-27T03:18:28;8.36;84.30
36244;DHT22;22284;49.956;19.816;2022-09-27T03:21:29;8.37;84.39
36244;DHT22;22284;49.956;19.816;2022-09-27T03:24:31;8.31;84.30
36244;DHT22;22284;49.956;19.816;2022-09-27T03:27:32;8.26;84.24
36244;DHT22;22284;49.956;19.816;2022-09-27T03:30:33;8.21;84.04
36244;DHT22;22284;49.956;19.816;2022-09-27T03:33:35;8.17;84.02
36244;DHT22;22284;49.956;19.816;2022-09-27T03:36:36;8.13;84.08
36244;DHT22;22284;49.956;19.816;2022-09-27T03:39:37;8.17;84.12
36244;DHT22;22284;49.956;19.816;2022-09-27T03:42:40;8.17;84.11
36244;DHT22;22284;49.956;19.816;2022-09-27T03:45:42;8.17;83.98
36244;DHT22;22284;49.956;19.816;2022-09-27T03:48:45;8.19;83.96
36244;DHT22;22284;49.956;19.816;2022-09-27T03:51:46;8.21;84.09
36244;DHT22;22284;49.956;19.816;2022-09-27T03:54:47;8.21;84.12
36244;DHT22;22284;49.956;19.816;2022-09-27T03:57:48;8.21;84.10
36244;DHT22;22284;49.956;19.816;2022-09-27T04:00:51;8.20;84.07
36244;DHT22;22284;49.956;19.816;2022-09-27T04:03:52;8.14;84.01
36244;DHT22;22284;49.956;19.816;2022-09-27T04:06:53;8.12;83.99
36244;DHT22;22284;49.956;19.816;2022-09-27T04:09:54;8.10;83.94
36244;DHT22;22284;49.956;19.816;2022-09-27T04:12:55;8.12;83.93
36244;DHT22;22284;49.956;19.816;2022-09-27T04:15:57;8.06;83.78
36244;DHT22;22284;49.956;19.816;2022-09-27T04:18:58;8.02;83.65
36244;DHT22;22284;49.956;19.816;2022-09-27T04:22:00;7.99;83.62
36244;DHT22;22284;49.956;19.816;2022-09-27T04:25:01;7.96;83.69
36244;DHT22;22284;49.956;19.816;2022-09-27T04:28:02;7.95;83.83
36244;DHT22;22284;49.956;19.816;2022-09-27T04:31:03;7.99;83.94
36244;DHT22;22284;49.956;19.816;2022-09-27T04:34:04;7.93;83.96
36244;DHT22;22284;49.956;19.816;2022-09-27T04:37:06;7.91;83.98
36244;DHT22;22284;49.956;19.816;2022-09-27T04:40:08;7.85;83.83
36244;DHT22;22284;49.956;19.816;2022-09-27T04:43:09;7.78;83.72
36244;DHT22;22284;49.956;19.816;2022-09-27T04:46:10;7.80;83.62
36244;DHT22;22284;49.956;19.816;2022-09-27T04:49:11;7.75;83.29
36244;DHT22;22284;49.956;19.816;2022-09-27T04:52:13;7.69;82.78
36244;DHT22;22284;49.956;19.816;2022-09-27T04:55:15;7.62;82.98
36244;DHT22;22284;49.956;19.816;2022-09-27T04:58:16;7.61;83.10
36244;DHT22;22284;49.956;19.816;2022-09-27T05:01:17;7.59;82.98
36244;DHT22;22284;49.956;19.816;2022-09-27T05:04:18;7.58;83.28
36244;DHT22;22284;49.956;19.816;2022-09-27T05:07:19;7.55;83.34
36244;DHT22;22284;49.956;19.816;2022-09-27T05:10:20;7.57;83.55
36244;DHT22;22284;49.956;19.816;2022-09-27T05:13:21;7.64;83.72
36244;DHT22;22284;49.956;19.816;2022-09-27T05:16:22;7.67;83.99
36244;DHT22;22284;49.956;19.816;2022-09-27T05:19:24;7.65;83.96
36244;DHT22;22284;49.956;19.816;2022-09-27T05:22:25;7.72;83.95
36244;DHT22;22284;49.956;19.816;2022-09-27T05:25:26;7.80;84.03
36244;DHT22;22284;49.956;19.816;2022-09-27T05:28:27;7.82;84.45
36244;DHT22;22284;49.956;19.816;2022-09-27T05:31:28;7.84;84.51
36244;DHT22;22284;49.956;19.816;2022-09-27T05:34:29;7.89;84.71
36244;DHT22;22284;49.956;19.816;2022-09-27T05:37:32;7.91;85.07
36244;DHT22;22284;49.956;19.816;2022-09-27T05:40:33;7.98;85.10
36244;DHT22;22284;49.956;19.816;2022-09-27T05:43:34;7.96;85.49
36244;DHT22;22284;49.956;19.816;2022-09-27T05:46:36;8.03;85.36
36244;DHT22;22284;49.956;19.816;2022-09-27T05:49:38;8.12;85.40
36244;DHT22;22284;49.956;19.816;2022-09-27T05:52:40;8.21;85.68
36244;DHT22;22284;49.956;19.816;2022-09-27T05:55:41;8.26;85.68
36244;DHT22;22284;49.956;19.816;2022-09-27T05:58:43;8.33;85.64
36244;DHT22;22284;49.956;19.816;2022-09-27T06:01:44;8.41;85.60
36244;DHT22;22284;49.956;19.816;2022-09-27T06:04:45;8.51;85.61
36244;DHT22;22284;49.956;19.816;2022-09-27T06:07:46;8.61;85.65
36244;DHT22;22284;49.956;19.816;2022-09-27T06:10:49;8.71;85.70
36244;DHT22;22284;49.956;19.816;2022-09-27T06:13:51;8.78;85.59
36244;DHT22;22284;49.956;19.816;2022-09-27T06:16:52;8.89;85.59
36244;DHT22;22284;49.956;19.816;2022-09-27T06:19:54;8.99;85.57
36244;DHT22;22284;49.956;19.816;2022-09-27T06:23:08;9.03;85.44
36244;DHT22;22284;49.956;19.816;2022-09-27T06:26:09;9.14;85.39
36244;DHT22;22284;49.956;19.816;2022-09-27T06:29:11;9.24;85.52
36244;DHT22;22284;49.956;19.816;2022-09-27T06:32:12;9.24;85.48
36244;DHT22;22284;49.956;19.816;2022-09-27T06:35:13;9.33;85.52
36244;DHT22;22284;49.956;19.816;2022-09-27T06:38:16;9.39;85.55
36244;DHT22;22284;49.956;19.816;2022-09-27T06:41:18;9.48;85.57
36244;DHT22;22284;49.956;19.816;2022-09-27T06:44:19;9.56;85.62
36244;DHT22;22284;49.956;19.816;2022-09-27T06:47:20;9.70;85.65
36244;DHT22;22284;49.956;19.816;2022-09-27T06:50:21;9.76;85.59
36244;DHT22;22284;49.956;19.816;2022-09-27T06:53:23;9.83;85.59
36244;DHT22;22284;49.956;19.816;2022-09-27T06:56:25;9.94;85.61
36244;DHT22;22284;49.956;19.816;2022-09-27T06:59:26;10.04;85.55
36244;DHT22;22284;49.956;19.816;2022-09-27T07:02:45;10.16;85.60
36244;DHT22;22284;49.956;19.816;2022-09-27T07:06:04;10.25;85.70
36244;DHT22;22284;49.956;19.816;2022-09-27T07:09:06;10.31;85.78
36244;DHT22;22284;49.956;19.816;2022-09-27T07:12:07;10.39;86.05
36244;DHT22;22284;49.956;19.816;2022-09-27T07:15:09;10.48;86.29
36244;DHT22;22284;49.956;19.816;2022-09-27T07:18:10;10.55;86.66
36244;DHT22;22284;49.956;19.816;2022-09-27T07:21:11;10.61;86.63
36244;DHT22;22284;49.956;19.816;2022-09-27T07:24:12;10.73;87.05
36244;DHT22;22284;49.956;19.816;2022-09-27T07:27:14;10.82;87.01
36244;DHT22;22284;49.956;19.816;2022-09-27T07:30:15;10.90;86.93
36244;DHT22;22284;49.956;19.816;2022-09-27T07:33:16;11.03;86.99
36244;DHT22;22284;49.956;19.816;2022-09-27T07:36:18;11.14;86.92
36244;DHT22;22284;49.956;19.816;2022-09-27T07:39:19;11.21;86.91
36244;DHT22;22284;49.956;19.816;2022-09-27T07:42:21;11.29;86.79
36244;DHT22;22284;49.956;19.816;2022-09-27T07:45:25;11.37;86.66
36244;DHT22;22284;49.956;19.816;2022-09-27T07:48:26;11.48;86.49
36244;DHT22;22284;49.956;19.816;2022-09-27T07:51:28;11.60;86.40
36244;DHT22;22284;49.956;19.816;2022-09-27T07:54:29;11.68;86.31
36244;DHT22;22284;49.956;19.816;2022-09-27T07:57:30;11.74;86.08
36244;DHT22;22284;49.956;19.816;2022-09-27T08:00:31;11.84;85.86
36244;DHT22;22284;49.956;19.816;2022-09-27T08:03:32;11.93;85.71
36244;DHT22;22284;49.956;19.816;2022-09-27T08:06:34;12.04;85.45
36244;DHT22;22284;49.956;19.816;2022-09-27T08:09:36;12.14;85.41
36244;DHT22;22284;49.956;19.816;2022-09-27T08:12:37;12.22;85.45
36244;DHT22;22284;49.956;19.816;2022-09-27T08:15:38;12.32;85.37
36244;DHT22;22284;49.956;19.816;2022-09-27T08:18:39;12.42;85.49
36244;DHT22;22284;49.956;19.816;2022-09-27T08:21:40;12.57;85.53
36244;DHT22;22284;49.956;19.816;2022-09-27T08:24:41;12.67;85.74
36244;DHT22;22284;49.956;19.816;2022-09-27T08:27:43;12.77;85.62
36244;DHT22;22284;49.956;19.816;2022-09-27T08:30:44;12.86;85.53
36244;DHT22;22284;49.956;19.816;2022-09-27T08:33:50;12.95;85.29
36244;DHT22;22284;49.956;19.816;2022-09-27T08:36:52;13.07;84.98
36244;DHT22;22284;49.956;19.816;2022-09-27T08:39:55;13.17;84.94
36244;DHT22;22284;49.956;19.816;2022-09-27T08:43:08;13.26;84.86
36244;DHT22;22284;49.956;19.816;2022-09-27T08:46:52;13.33;84.81
36244;DHT22;22284;49.956;19.816;2022-09-27T08:50:01;13.47;84.77
36244;DHT22;22284;49.956;19.816;2022-09-27T08:53:26;13.57;84.80
36244;DHT22;22284;49.956;19.816;2022-09-27T08:56:13;13.68;84.92
36244;DHT22;22284;49.956;19.816;2022-09-27T08:59:17;13.76;85.04
36244;DHT22;22284;49.956;19.816;2022-09-27T09:02:22;13.87;84.93
36244;DHT22;22284;49.956;19.816;2022-09-27T09:05:33;14.05;84.92
36244;DHT22;22284;49.956;19.816;2022-09-27T09:16:17;14.40;83.78
36244;DHT22;22284;49.956;19.816;2022-09-27T09:19:41;14.56;83.78
36244;DHT22;22284;49.956;19.816;2022-09-27T09:30:11;14.87;83.25
36244;DHT22;22284;49.956;19.816;2022-09-27T09:33:31;14.95;82.80
36244;DHT22;22284;49.956;19.816;2022-09-27T09:36:41;14.99;82.61
36244;DHT22;22284;49.956;19.816;2022-09-27T09:39:53;15.08;82.32
36244;DHT22;22284;49.956;19.816;2022-09-27T09:43:03;15.19;82.40
36244;DHT22;22284;49.956;19.816;2022-09-27T09:46:09;15.25;79.89
36244;DHT22;22284;49.956;19.816;2022-09-27T09:52:32;15.47;80.09
36244;DHT22;22284;49.956;19.816;2022-09-27T09:55:34;15.51;80.02
36244;DHT22;22284;49.956;19.816;2022-09-27T09:58:47;15.61;79.37
36244;DHT22;22284;49.956;19.816;2022-09-27T10:01:52;15.65;79.76
36244;DHT22;22284;49.956;19.816;2022-09-27T10:04:55;15.80;79.47
36244;DHT22;22284;49.956;19.816;2022-09-27T10:08:00;15.88;79.41
36244;DHT22;22284;49.956;19.816;2022-09-27T10:11:02;15.92;78.26
36244;DHT22;22284;49.956;19.816;2022-09-27T10:14:11;15.95;77.33
36244;DHT22;22284;49.956;19.816;2022-09-27T10:17:20;16.07;77.78
36244;DHT22;22284;49.956;19.816;2022-09-27T10:20:34;16.12;76.87
36244;DHT22;22284;49.956;19.816;2022-09-27T10:23:34;16.20;75.12
36244;DHT22;22284;49.956;19.816;2022-09-27T10:26:39;16.23;71.80
36244;DHT22;22284;49.956;19.816;2022-09-27T10:29:42;16.26;73.10
36244;DHT22;22284;49.956;19.816;2022-09-27T10:32:43;16.33;73.64
36244;DHT22;22284;49.956;19.816;2022-09-27T10:35:46;16.39;73.53
36244;DHT22;22284;49.956;19.816;2022-09-27T10:38:56;16.48;74.80
36244;DHT22;22284;49.956;19.816;2022-09-27T10:41:57;16.60;75.01
36244;DHT22;22284;49.956;19.816;2022-09-27T10:45:30;16.63;74.24
36244;DHT22;22284;49.956;19.816;2022-09-27T10:48:29;16.68;73.78
36244;DHT22;22284;49.956;19.816;2022-09-27T10:51:31;16.72;73.31
36244;DHT22;22284;49.956;19.816;2022-09-27T10:54:35;16.78;73.11
36244;DHT22;22284;49.956;19.816;2022-09-27T10:57:37;16.82;73.20
36244;DHT22;22284;49.956;19.816;2022-09-27T11:00:39;16.92;73.54
36244;DHT22;22284;49.956;19.816;2022-09-27T11:03:57;16.99;73.33
36244;DHT22;22284;49.956;19.816;2022-09-27T11:07:11;17.09;73.10
36244;DHT22;22284;49.956;19.816;2022-09-27T11:10:25;17.15;72.17
36244;DHT22;22284;49.956;19.816;2022-09-27T11:13:29;17.22;71.81
36244;DHT22;22284;49.956;19.816;2022-09-27T11:30:18;17.38;70.15
36244;DHT22;22284;49.956;19.816;2022-09-27T11:58:27;17.71;68.71
36244;DHT22;22284;49.956;19.816;2022-09-27T12:05:24;17.81;65.89
36244;DHT22;22284;49.956;19.816;2022-09-27T12:12:00;17.88;67.08
36244;DHT22;22284;49.956;19.816;2022-09-27T12:15:05;17.88;66.47
36244;DHT22;22284;49.956;19.816;2022-09-27T12:18:23;17.93;66.62
36244;DHT22;22284;49.956;19.816;2022-09-27T12:21:24;17.95;65.60
36244;DHT22;22284;49.956;19.816;2022-09-27T12:24:27;17.92;65.87
36244;DHT22;22284;49.956;19.816;2022-09-27T12:27:45;17.95;66.60
36244;DHT22;22284;49.956;19.816;2022-09-27T12:30:52;17.95;66.43
36244;DHT22;22284;49.956;19.816;2022-09-27T12:38:01;17.95;66.86
36244;DHT22;22284;49.956;19.816;2022-09-27T12:41:05;17.98;66.93
36244;DHT22;22284;49.956;19.816;2022-09-27T12:44:10;18.03;66.89
36244;DHT22;22284;49.956;19.816;2022-09-27T12:51:15;17.99;66.99
36244;DHT22;22284;49.956;19.816;2022-09-27T12:54:30;18.05;66.99
36244;DHT22;22284;49.956;19.816;2022-09-27T12:58:07;18.03;66.75
36244;DHT22;22284;49.956;19.816;2022-09-27T13:04:39;18.10;67.27
36244;DHT22;22284;49.956;19.816;2022-09-27T13:11:22;18.10;67.55
36244;DHT22;22284;49.956;19.816;2022-09-27T13:14:26;18.10;67.57
36244;DHT22;22284;49.956;19.816;2022-09-27T13:17:48;18.13;67.63
36244;DHT22;22284;49.956;19.816;2022-09-27T13:20:49;18.13;67.56
36244;DHT22;22284;49.956;19.816;2022-09-27T13:23:51;18.10;67.75
36244;DHT22;22284;49.956;19.816;2022-09-27T13:26:52;18.13;67.89
36244;DHT22;22284;49.956;19.816;2022-09-27T13:33:41;18.10;68.25
36244;DHT22;22284;49.956;19.816;2022-09-27T13:36:46;18.10;68.50
36244;DHT22;22284;49.956;19.816;2022-09-27T13:39:47;18.10;68.88
36244;DHT22;22284;49.956;19.816;2022-09-27T13:46:14;18.06;69.45
36244;DHT22;22284;49.956;19.816;2022-09-27T13:49:37;18.06;69.80
36244;DHT22;22284;49.956;19.816;2022-09-27T13:52:42;18.03;69.40
36244;DHT22;22284;49.956;19.816;2022-09-27T13:55:50;18.02;68.99
36244;DHT22;22284;49.956;19.816;2022-09-27T13:58:58;18.02;68.69
36244;DHT22;22284;49.956;19.816;2022-09-27T14:02:24;18.02;68.89
36244;DHT22;22284;49.956;19.816;2022-09-27T14:05:57;17.96;69.05
36244;DHT22;22284;49.956;19.816;2022-09-27T14:09:03;17.95;68.93
36244;DHT22;22284;49.956;19.816;2022-09-27T14:12:15;17.90;69.12
36244;DHT22;22284;49.956;19.816;2022-09-27T14:15:30;17.85;69.30
36244;DHT22;22284;49.956;19.816;2022-09-27T14:18:33;17.79;69.61
36244;DHT22;22284;49.956;19.816;2022-09-27T14:21:38;17.72;70.20
36244;DHT22;22284;49.956;19.816;2022-09-27T14:27:45;17.64;71.03
36244;DHT22;22284;49.956;19.816;2022-09-27T14:30:47;17.58;71.71
36244;DHT22;22284;49.956;19.816;2022-09-27T14:33:49;17.53;72.28
36244;DHT22;22284;49.956;19.816;2022-09-27T14:36:50;17.45;72.81
36244;DHT22;22284;49.956;19.816;2022-09-27T14:40:18;17.41;72.95
36244;DHT22;22284;49.956;19.816;2022-09-27T14:43:20;17.34;73.24
36244;DHT22;22284;49.956;19.816;2022-09-27T14:46:28;17.31;73.53
36244;DHT22;22284;49.956;19.816;2022-09-27T14:49:31;17.25;73.56
36244;DHT22;22284;49.956;19.816;2022-09-27T14:52:33;17.16;73.76
36244;DHT22;22284;49.956;19.816;2022-09-27T14:55:35;17.12;73.75
36244;DHT22;22284;49.956;19.816;2022-09-27T14:58:38;17.01;73.95
36244;DHT22;22284;49.956;19.816;2022-09-27T15:01:49;16.91;73.85
36244;DHT22;22284;49.956;19.816;2022-09-27T15:04:52;16.75;73.42
36244;DHT22;22284;49.956;19.816;2022-09-27T15:07:55;16.64;73.18
36244;DHT22;22284;49.956;19.816;2022-09-27T15:11:03;16.43;74.23
36244;DHT22;22284;49.956;19.816;2022-09-27T15:14:12;16.20;74.97
36244;DHT22;22284;49.956;19.816;2022-09-27T15:17:18;16.01;75.63
36244;DHT22;22284;49.956;19.816;2022-09-27T15:20:28;15.78;77.54
36244;DHT22;22284;49.956;19.816;2022-09-27T15:23:39;15.51;77.73
36244;DHT22;22284;49.956;19.816;2022-09-27T15:26:43;15.20;77.60
36244;DHT22;22284;49.956;19.816;2022-09-27T15:29:51;14.91;77.88
36244;DHT22;22284;49.956;19.816;2022-09-27T15:32:54;14.63;78.23
36244;DHT22;22284;49.956;19.816;2022-09-27T15:35:58;14.39;78.65
36244;DHT22;22284;49.956;19.816;2022-09-27T15:39:08;14.13;79.28
36244;DHT22;22284;49.956;19.816;2022-09-27T15:42:13;13.93;79.20
36244;DHT22;22284;49.956;19.816;2022-09-27T15:45:30;13.72;79.10
36244;DHT22;22284;49.956;19.816;2022-09-27T15:48:34;13.51;79.90
36244;DHT22;22284;49.956;19.816;2022-09-27T15:51:40;13.42;80.25
36244;DHT22;22284;49.956;19.816;2022-09-27T15:54:41;13.29;80.67
36244;DHT22;22284;49.956;19.816;2022-09-27T15:57:46;13.18;81.21
36244;DHT22;22284;49.956;19.816;2022-09-27T16:00:59;13.12;81.16
36244;DHT22;22284;49.956;19.816;2022-09-27T16:04:02;13.07;81.56
36244;DHT22;22284;49.956;19.816;2022-09-27T16:07:04;13.01;81.69
36244;DHT22;22284;49.956;19.816;2022-09-27T16:10:21;12.94;81.89
36244;DHT22;22284;49.956;19.816;2022-09-27T16:13:24;12.98;81.75
36244;DHT22;22284;49.956;19.816;2022-09-27T16:16:26;12.94;81.99
36244;DHT22;22284;49.956;19.816;2022-09-27T16:19:27;12.93;81.97
36244;DHT22;22284;49.956;19.816;2022-09-27T16:22:28;12.90;82.01
36244;DHT22;22284;49.956;19.816;2022-09-27T16:25:29;12.90;81.97
36244;DHT22;22284;49.956;19.816;2022-09-27T16:28:32;12.90;81.80
36244;DHT22;22284;49.956;19.816;2022-09-27T16:31:33;12.87;82.11
36244;DHT22;22284;49.956;19.816;2022-09-27T16:34:35;12.87;82.25
36244;DHT22;22284;49.956;19.816;2022-09-27T16:37:37;12.84;82.20
36244;DHT22;22284;49.956;19.816;2022-09-27T16:40:38;12.83;82.20
36244;DHT22;22284;49.956;19.816;2022-09-27T16:43:39;12.81;82.44
36244;DHT22;22284;49.956;19.816;2022-09-27T16:46:42;12.80;82.53
36244;DHT22;22284;49.956;19.816;2022-09-27T16:49:45;12.80;82.50
36244;DHT22;22284;49.956;19.816;2022-09-27T16:53:04;12.78;82.72
36244;DHT22;22284;49.956;19.816;2022-09-27T16:56:06;12.74;82.82
36244;DHT22;22284;49.956;19.816;2022-09-27T16:59:07;12.67;82.44
36244;DHT22;22284;49.956;19.816;2022-09-27T17:02:09;12.64;82.42
36244;DHT22;22284;49.956;19.816;2022-09-27T17:05:10;12.62;82.39
36244;DHT22;22284;49.956;19.816;2022-09-27T17:08:11;12.60;82.45
36244;DHT22;22284;49.956;19.816;2022-09-27T17:11:13;12.57;82.34
36244;DHT22;22284;49.956;19.816;2022-09-27T17:14:15;12.53;82.48
36244;DHT22;22284;49.956;19.816;2022-09-27T17:17:16;12.55;82.35
36244;DHT22;22284;49.956;19.816;2022-09-27T17:20:18;12.53;82.59
36244;DHT22;22284;49.956;19.816;2022-09-27T17:23:19;12.50;82.97
36244;DHT22;22284;49.956;19.816;2022-09-27T17:26:22;12.50;83.13
36244;DHT22;22284;49.956;19.816;2022-09-27T17:29:23;12.52;83.14
36244;DHT22;22284;49.956;19.816;2022-09-27T17:32:24;12.55;83.04
36244;DHT22;22284;49.956;19.816;2022-09-27T17:35:25;12.53;83.04
36244;DHT22;22284;49.956;19.816;2022-09-27T17:38:28;12.53;82.96
36244;DHT22;22284;49.956;19.816;2022-09-27T17:41:30;12.55;83.04
36244;DHT22;22284;49.956;19.816;2022-09-27T17:44:32;12.59;83.08
36244;DHT22;22284;49.956;19.816;2022-09-27T17:47:34;12.57;83.29
36244;DHT22;22284;49.956;19.816;2022-09-27T17:50:53;12.55;83.29
36244;DHT22;22284;49.956;19.816;2022-09-27T17:53:54;12.53;83.16
36244;DHT22;22284;49.956;19.816;2022-09-27T17:56:55;12.53;83.14
36244;DHT22;22284;49.956;19.816;2022-09-27T17:59:57;12.50;83.26
36244;DHT22;22284;49.956;19.816;2022-09-27T18:02:58;12.50;83.27
36244;DHT22;22284;49.956;19.816;2022-09-27T18:06:09;12.50;83.41
36244;DHT22;22284;49.956;19.816;2022-09-27T18:09:13;12.48;83.27
36244;DHT22;22284;49.956;19.816;2022-09-27T18:12:14;12.48;83.36
36244;DHT22;22284;49.956;19.816;2022-09-27T18:15:16;12.46;83.57
36244;DHT22;22284;49.956;19.816;2022-09-27T18:18:19;12.48;83.65
36244;DHT22;22284;49.956;19.816;2022-09-27T18:21:21;12.43;83.45
36244;DHT22;22284;49.956;19.816;2022-09-27T18:24:23;12.41;83.42
36244;DHT22;22284;49.956;19.816;2022-09-27T18:27:25;12.41;83.51
36244;DHT22;22284;49.956;19.816;2022-09-27T18:30:26;12.41;83.49
36244;DHT22;22284;49.956;19.816;2022-09-27T18:33:27;12.45;83.52
36244;DHT22;22284;49.956;19.816;2022-09-27T18:36:28;12.45;83.54
36244;DHT22;22284;49.956;19.816;2022-09-27T18:39:30;12.45;83.66
36244;DHT22;22284;49.956;19.816;2022-09-27T18:42:31;12.49;83.70
36244;DHT22;22284;49.956;19.816;2022-09-27T18:45:35;12.48;83.74
36244;DHT22;22284;49.956;19.816;2022-09-27T18:48:38;12.49;83.71
36244;DHT22;22284;49.956;19.816;2022-09-27T18:51:41;12.49;83.71
36244;DHT22;22284;49.956;19.816;2022-09-27T18:54:44;12.52;83.70
36244;DHT22;22284;49.956;19.816;2022-09-27T18:57:45;12.52;83.68
36244;DHT22;22284;49.956;19.816;2022-09-27T19:00:46;12.53;83.66
36244;DHT22;22284;49.956;19.816;2022-09-27T19:03:47;12.53;83.69
36244;DHT22;22284;49.956;19.816;2022-09-27T19:06:49;12.53;83.63
36244;DHT22;22284;49.956;19.816;2022-09-27T19:09:50;12.53;83.70
36244;DHT22;22284;49.956;19.816;2022-09-27T19:12:52;12.50;83.67
36244;DHT22;22284;49.956;19.816;2022-09-27T19:15:56;12.50;83.74
36244;DHT22;22284;49.956;19.816;2022-09-27T19:18:58;12.49;83.86
36244;DHT22;22284;49.956;19.816;2022-09-27T19:21:59;12.43;83.91
36244;DHT22;22284;49.956;19.816;2022-09-27T19:25:00;12.43;83.87
36244;DHT22;22284;49.956;19.816;2022-09-27T19:28:01;12.39;83.93
36244;DHT22;22284;49.956;19.816;2022-09-27T19:31:06;12.39;83.90
36244;DHT22;22284;49.956;19.816;2022-09-27T19:34:07;12.39;83.94
36244;DHT22;22284;49.956;19.816;2022-09-27T19:37:08;12.38;83.85
36244;DHT22;22284;49.956;19.816;2022-09-27T19:40:09;12.35;83.87
36244;DHT22;22284;49.956;19.816;2022-09-27T19:43:10;12.38;83.90
36244;DHT22;22284;49.956;19.816;2022-09-27T19:46:14;12.36;84.10
36244;DHT22;22284;49.956;19.816;2022-09-27T19:49:16;12.36;84.22
36244;DHT22;22284;49.956;19.816;2022-09-27T19:52:18;12.36;84.39
36244;DHT22;22284;49.956;19.816;2022-09-27T19:55:19;12.39;84.37
36244;DHT22;22284;49.956;19.816;2022-09-27T19:58:20;12.38;84.42
36244;DHT22;22284;49.956;19.816;2022-09-27T20:01:23;12.36;84.61
36244;DHT22;22284;49.956;19.816;2022-09-27T20:04:24;12.35;84.68
36244;DHT22;22284;49.956;19.816;2022-09-27T20:07:25;12.36;84.68
36244;DHT22;22284;49.956;19.816;2022-09-27T20:10:26;12.35;84.93
36244;DHT22;22284;49.956;19.816;2022-09-27T20:13:30;12.36;85.06
36244;DHT22;22284;49.956;19.816;2022-09-27T20:16:32;12.32;84.97
36244;DHT22;22284;49.956;19.816;2022-09-27T20:19:33;12.32;84.86
36244;DHT22;22284;49.956;19.816;2022-09-27T20:22:34;12.31;84.93
36244;DHT22;22284;49.956;19.816;2022-09-27T20:25:35;12.29;84.91
36244;DHT22;22284;49.956;19.816;2022-09-27T20:28:47;12.32;84.95
36244;DHT22;22284;49.956;19.816;2022-09-27T20:31:48;12.28;85.24
36244;DHT22;22284;49.956;19.816;2022-09-27T20:34:49;12.25;85.12
36244;DHT22;22284;49.956;19.816;2022-09-27T20:37:51;12.22;85.12
36244;DHT22;22284;49.956;19.816;2022-09-27T20:40:54;12.22;85.19
36244;DHT22;22284;49.956;19.816;2022-09-27T20:43:58;12.24;85.20
36244;DHT22;22284;49.956;19.816;2022-09-27T20:47:03;12.21;85.15
36244;DHT22;22284;49.956;19.816;2022-09-27T20:50:06;12.20;84.97
36244;DHT22;22284;49.956;19.816;2022-09-27T20:53:07;12.18;85.13
36244;DHT22;22284;49.956;19.816;2022-09-27T20:56:19;12.18;85.34
36244;DHT22;22284;49.956;19.816;2022-09-27T20:59:21;12.20;85.42
36244;DHT22;22284;49.956;19.816;2022-09-27T21:02:22;12.18;85.74
36244;DHT22;22284;49.956;19.816;2022-09-27T21:05:23;12.18;85.70
36244;DHT22;22284;49.956;19.816;2022-09-27T21:08:30;12.15;85.77
36244;DHT22;22284;49.956;19.816;2022-09-27T21:11:33;12.17;85.71
36244;DHT22;22284;49.956;19.816;2022-09-27T21:14:34;12.17;85.84
36244;DHT22;22284;49.956;19.816;2022-09-27T21:17:35;12.15;85.67